LLM2226 USTR-URSS
Flight info
| Callsign | LLM2226 |
|---|---|
| Flight time | 4h 10m |
| Altitude | 34000 |
| Route | BUKOS1R BUKOS T797 MGR L992 AKB Z210 KODUM N996 AKT/K0859F360 N154 ITAKA R227 BEMES A944 GUBOR G487 BINOL BINOL1L |
| Aircraft | A320/M-SDE3FGHIRWY/LB1 |
Departure
| Time | 2026-04-25 05:51 |
|---|---|
| Airport | Roshchino International Airport (USTR) |
Arrival
| Time | 2026-04-25 10:02 |
|---|---|
| Airport | Sochi International Airport (URSS) |
| Time | Latitude | Longitude | Altitude | Speed | Heading |
|---|---|---|---|---|---|
| 2026-04-25 05:21 | 57.18081 | 65.34802 | 387 ft | 0 kts | 42° |
| 2026-04-25 05:37 | 57.18080 | 65.34800 | 387 ft | 1 kts | 43° |
| 2026-04-25 05:38 | 57.18069 | 65.34782 | 387 ft | 2 kts | 42° |
| 2026-04-25 05:38 | 57.18058 | 65.34763 | 387 ft | 2 kts | 42° |
| 2026-04-25 05:38 | 57.18047 | 65.34744 | 387 ft | 1 kts | 42° |
| 2026-04-25 05:38 | 57.18036 | 65.34728 | 387 ft | 2 kts | 19° |
| 2026-04-25 05:39 | 57.18021 | 65.34724 | 387 ft | 2 kts | 356° |
| 2026-04-25 05:39 | 57.18009 | 65.34728 | 387 ft | 1 kts | 334° |
| 2026-04-25 05:39 | 57.18000 | 65.34745 | 387 ft | 2 kts | 309° |
| 2026-04-25 05:39 | 57.17990 | 65.34765 | 387 ft | 2 kts | 315° |
| 2026-04-25 05:40 | 57.17979 | 65.34785 | 387 ft | 2 kts | 313° |
| 2026-04-25 05:40 | 57.17969 | 65.34804 | 387 ft | 2 kts | 314° |
| 2026-04-25 05:40 | 57.17961 | 65.34819 | 387 ft | 0 kts | 314° |
| 2026-04-25 05:42 | 57.17962 | 65.34817 | 387 ft | 1 kts | 314° |
| 2026-04-25 05:43 | 57.17999 | 65.34747 | 387 ft | 10 kts | 314° |
| 2026-04-25 05:43 | 57.18055 | 65.34647 | 387 ft | 11 kts | 315° |
| 2026-04-25 05:43 | 57.18093 | 65.34576 | 387 ft | 11 kts | 314° |
| 2026-04-25 05:43 | 57.18171 | 65.34425 | 387 ft | 12 kts | 313° |
| 2026-04-25 05:44 | 57.18234 | 65.34309 | 387 ft | 12 kts | 316° |
| 2026-04-25 05:44 | 57.18298 | 65.34193 | 387 ft | 13 kts | 314° |
| 2026-04-25 05:44 | 57.18363 | 65.34070 | 387 ft | 13 kts | 314° |
| 2026-04-25 05:44 | 57.18430 | 65.33947 | 387 ft | 13 kts | 315° |
| 2026-04-25 05:45 | 57.18498 | 65.33820 | 387 ft | 14 kts | 314° |
| 2026-04-25 05:45 | 57.18567 | 65.33691 | 387 ft | 14 kts | 314° |
| 2026-04-25 05:45 | 57.18621 | 65.33571 | 387 ft | 10 kts | 280° |
| 2026-04-25 05:45 | 57.18621 | 65.33431 | 387 ft | 11 kts | 268° |
| 2026-04-25 05:46 | 57.18592 | 65.33308 | 387 ft | 11 kts | 226° |
| 2026-04-25 05:46 | 57.18536 | 65.33201 | 387 ft | 11 kts | 226° |
| 2026-04-25 05:46 | 57.18484 | 65.33084 | 387 ft | 11 kts | 248° |
| 2026-04-25 05:46 | 57.18475 | 65.32929 | 387 ft | 12 kts | 267° |
| 2026-04-25 05:47 | 57.18472 | 65.32770 | 387 ft | 12 kts | 268° |
| 2026-04-25 05:47 | 57.18470 | 65.32606 | 387 ft | 12 kts | 268° |
| 2026-04-25 05:47 | 57.18467 | 65.32439 | 387 ft | 13 kts | 268° |
| 2026-04-25 05:47 | 57.18464 | 65.32267 | 387 ft | 13 kts | 268° |
| 2026-04-25 05:48 | 57.18501 | 65.32124 | 387 ft | 13 kts | 318° |
| 2026-04-25 05:48 | 57.18570 | 65.32010 | 387 ft | 12 kts | 317° |
| 2026-04-25 05:48 | 57.18618 | 65.31930 | 387 ft | 0 kts | 318° |
| 2026-04-25 05:49 | 57.18626 | 65.31917 | 387 ft | 4 kts | 318° |
| 2026-04-25 05:50 | 57.18665 | 65.31852 | 387 ft | 10 kts | 317° |
| 2026-04-25 05:50 | 57.18712 | 65.31740 | 387 ft | 11 kts | 252° |
| 2026-04-25 05:50 | 57.18657 | 65.31618 | 387 ft | 15 kts | 227° |
| 2026-04-25 05:50 | 57.18496 | 65.31297 | 387 ft | 64 kts | 227° |
| 2026-04-25 05:51 | 57.18055 | 65.30403 | 387 ft | 122 kts | 227° |
| 2026-04-25 05:51 | 57.17374 | 65.29026 | 421 ft | 166 kts | 227° |
| 2026-04-25 05:51 | 57.16597 | 65.27459 | 949 ft | 168 kts | 227° |
| 2026-04-25 05:51 | 57.15845 | 65.25754 | 1466 ft | 177 kts | 233° |
| 2026-04-25 05:52 | 57.15145 | 65.23910 | 2037 ft | 178 kts | 234° |
| 2026-04-25 05:52 | 57.14412 | 65.22016 | 2452 ft | 187 kts | 233° |
| 2026-04-25 05:52 | 57.13627 | 65.19988 | 2768 ft | 203 kts | 233° |
| 2026-04-25 05:52 | 57.12776 | 65.17799 | 3044 ft | 222 kts | 233° |
| 2026-04-25 05:53 | 57.11852 | 65.15430 | 3481 ft | 235 kts | 233° |
| 2026-04-25 05:53 | 57.10891 | 65.12972 | 4103 ft | 241 kts | 233° |
| 2026-04-25 05:53 | 57.09919 | 65.10492 | 4882 ft | 240 kts | 233° |
| 2026-04-25 05:53 | 57.08953 | 65.08030 | 5657 ft | 240 kts | 233° |
| 2026-04-25 05:54 | 57.07979 | 65.05557 | 6382 ft | 241 kts | 233° |
| 2026-04-25 05:54 | 57.07012 | 65.03098 | 7101 ft | 241 kts | 233° |
| 2026-04-25 05:54 | 57.05051 | 64.98120 | 8509 ft | 242 kts | 233° |
| 2026-04-25 05:55 | 57.04070 | 64.95633 | 9163 ft | 242 kts | 233° |
| 2026-04-25 05:55 | 57.03082 | 64.93128 | 9792 ft | 243 kts | 233° |
| 2026-04-25 05:55 | 57.02097 | 64.90638 | 10393 ft | 243 kts | 233° |
| 2026-04-25 05:55 | 57.01107 | 64.88135 | 10982 ft | 244 kts | 233° |
| 2026-04-25 05:56 | 57.00107 | 64.85616 | 11557 ft | 245 kts | 233° |
| 2026-04-25 05:56 | 56.99109 | 64.83104 | 11933 ft | 252 kts | 233° |
| 2026-04-25 05:56 | 56.98056 | 64.80455 | 12173 ft | 265 kts | 233° |
| 2026-04-25 05:56 | 56.96944 | 64.77666 | 12409 ft | 277 kts | 233° |
| 2026-04-25 05:57 | 56.95779 | 64.74741 | 12635 ft | 289 kts | 233° |
| 2026-04-25 05:57 | 56.94572 | 64.71714 | 12853 ft | 301 kts | 233° |
| 2026-04-25 05:57 | 56.93324 | 64.68591 | 13070 ft | 312 kts | 233° |
| 2026-04-25 05:57 | 56.91991 | 64.65353 | 13272 ft | 323 kts | 231° |
| 2026-04-25 05:58 | 56.90516 | 64.62179 | 13466 ft | 334 kts | 227° |
| 2026-04-25 05:58 | 56.88877 | 64.59064 | 13737 ft | 342 kts | 224° |
| 2026-04-25 05:58 | 56.87175 | 64.56034 | 14194 ft | 344 kts | 225° |
| 2026-04-25 05:58 | 56.85475 | 64.52998 | 14687 ft | 345 kts | 224° |
| 2026-04-25 05:59 | 56.83760 | 64.49943 | 15173 ft | 346 kts | 224° |
| 2026-04-25 05:59 | 56.82044 | 64.46892 | 15641 ft | 347 kts | 224° |
| 2026-04-25 05:59 | 56.80323 | 64.43839 | 16078 ft | 348 kts | 224° |
| 2026-04-25 05:59 | 56.78598 | 64.40787 | 16510 ft | 350 kts | 224° |
| 2026-04-25 06:00 | 56.76840 | 64.37677 | 16977 ft | 350 kts | 224° |
| 2026-04-25 06:00 | 56.75108 | 64.34622 | 17441 ft | 350 kts | 223° |
| 2026-04-25 06:00 | 56.73359 | 64.31541 | 17873 ft | 351 kts | 223° |
| 2026-04-25 06:00 | 56.71618 | 64.28484 | 18246 ft | 353 kts | 223° |
| 2026-04-25 06:01 | 56.69856 | 64.25383 | 18651 ft | 354 kts | 223° |
| 2026-04-25 06:01 | 56.68073 | 64.22257 | 19062 ft | 355 kts | 223° |
| 2026-04-25 06:01 | 56.66305 | 64.19164 | 19408 ft | 357 kts | 223° |
| 2026-04-25 06:01 | 56.64523 | 64.16047 | 19766 ft | 359 kts | 223° |
| 2026-04-25 06:02 | 56.62720 | 64.12897 | 20124 ft | 361 kts | 223° |
| 2026-04-25 06:02 | 56.60923 | 64.09763 | 20471 ft | 362 kts | 223° |
| 2026-04-25 06:02 | 56.59095 | 64.06574 | 20822 ft | 363 kts | 223° |
| 2026-04-25 06:02 | 56.57273 | 64.03411 | 21156 ft | 365 kts | 223° |
| 2026-04-25 06:03 | 56.55453 | 64.00249 | 21473 ft | 366 kts | 223° |
| 2026-04-25 06:03 | 56.53605 | 63.97043 | 21794 ft | 368 kts | 223° |
| 2026-04-25 06:03 | 56.51767 | 63.93864 | 22131 ft | 368 kts | 223° |
| 2026-04-25 06:03 | 56.49927 | 63.90675 | 22430 ft | 370 kts | 223° |
| 2026-04-25 06:04 | 56.48053 | 63.87442 | 22706 ft | 371 kts | 223° |
| 2026-04-25 06:04 | 56.46193 | 63.84234 | 22997 ft | 373 kts | 223° |
| 2026-04-25 06:04 | 56.44317 | 63.81001 | 23266 ft | 374 kts | 223° |
| 2026-04-25 06:04 | 56.42455 | 63.77802 | 23539 ft | 375 kts | 223° |
| 2026-04-25 06:05 | 56.40546 | 63.74523 | 23809 ft | 377 kts | 223° |
| 2026-04-25 06:05 | 56.38670 | 63.71304 | 24061 ft | 378 kts | 223° |
| 2026-04-25 06:05 | 56.36770 | 63.68053 | 24309 ft | 379 kts | 223° |
| 2026-04-25 06:05 | 56.34860 | 63.64789 | 24554 ft | 380 kts | 223° |
| 2026-04-25 06:06 | 56.32940 | 63.61513 | 24792 ft | 381 kts | 223° |
| 2026-04-25 06:06 | 56.31003 | 63.58213 | 25030 ft | 382 kts | 223° |
| 2026-04-25 06:06 | 56.29080 | 63.54906 | 25257 ft | 384 kts | 223° |
| 2026-04-25 06:06 | 56.27240 | 63.51484 | 25466 ft | 386 kts | 226° |
| 2026-04-25 06:07 | 56.25458 | 63.47847 | 25648 ft | 388 kts | 228° |
| 2026-04-25 06:07 | 56.23744 | 63.44142 | 25836 ft | 389 kts | 228° |
| 2026-04-25 06:07 | 56.22004 | 63.40411 | 26079 ft | 389 kts | 228° |
| 2026-04-25 06:07 | 56.20284 | 63.36738 | 26363 ft | 387 kts | 228° |
| 2026-04-25 06:08 | 56.18563 | 63.33062 | 26677 ft | 385 kts | 227° |
| 2026-04-25 06:08 | 56.16842 | 63.29387 | 26997 ft | 384 kts | 228° |
| 2026-04-25 06:08 | 56.15133 | 63.25743 | 27281 ft | 382 kts | 227° |
| 2026-04-25 06:08 | 56.13423 | 63.22097 | 27554 ft | 382 kts | 227° |
| 2026-04-25 06:09 | 56.11734 | 63.18498 | 27821 ft | 380 kts | 227° |
| 2026-04-25 06:09 | 56.10029 | 63.14875 | 28106 ft | 379 kts | 227° |
| 2026-04-25 06:09 | 56.08342 | 63.11296 | 28382 ft | 377 kts | 227° |
| 2026-04-25 06:09 | 56.06650 | 63.07706 | 28644 ft | 376 kts | 228° |
| 2026-04-25 06:10 | 56.04980 | 63.04168 | 28891 ft | 375 kts | 227° |
| 2026-04-25 06:10 | 56.03315 | 63.00650 | 29143 ft | 374 kts | 228° |
| 2026-04-25 06:10 | 56.01637 | 62.97106 | 29385 ft | 373 kts | 227° |
| 2026-04-25 06:10 | 55.99962 | 62.93578 | 29617 ft | 372 kts | 228° |
| 2026-04-25 06:11 | 55.98293 | 62.90064 | 29847 ft | 371 kts | 228° |
| 2026-04-25 06:11 | 55.96645 | 62.86604 | 30106 ft | 369 kts | 228° |
| 2026-04-25 06:11 | 55.94979 | 62.83109 | 30353 ft | 367 kts | 228° |
| 2026-04-25 06:11 | 55.93333 | 62.79657 | 30580 ft | 366 kts | 228° |
| 2026-04-25 06:12 | 55.91703 | 62.76243 | 30787 ft | 365 kts | 227° |
| 2026-04-25 06:12 | 55.90052 | 62.72793 | 30964 ft | 365 kts | 227° |
| 2026-04-25 06:12 | 55.88408 | 62.69362 | 31169 ft | 364 kts | 228° |
| 2026-04-25 06:12 | 55.86766 | 62.65937 | 31365 ft | 363 kts | 227° |
| 2026-04-25 06:13 | 55.85154 | 62.62581 | 31535 ft | 363 kts | 227° |
| 2026-04-25 06:13 | 55.83511 | 62.59170 | 31675 ft | 363 kts | 227° |
| 2026-04-25 06:13 | 55.81858 | 62.55745 | 31824 ft | 364 kts | 227° |
| 2026-04-25 06:14 | 55.78573 | 62.48946 | 32077 ft | 365 kts | 227° |
| 2026-04-25 06:14 | 55.76932 | 62.45557 | 32180 ft | 365 kts | 227° |
| 2026-04-25 06:14 | 55.75275 | 62.42136 | 32275 ft | 366 kts | 227° |
| 2026-04-25 06:14 | 55.73620 | 62.38732 | 32392 ft | 366 kts | 227° |
| 2026-04-25 06:15 | 55.71969 | 62.35327 | 32473 ft | 367 kts | 227° |
| 2026-04-25 06:15 | 55.68640 | 62.28470 | 32662 ft | 368 kts | 226° |
| 2026-04-25 06:15 | 55.66971 | 62.25043 | 32772 ft | 369 kts | 226° |
| 2026-04-25 06:16 | 55.65298 | 62.21606 | 32854 ft | 370 kts | 226° |
| 2026-04-25 06:16 | 55.61953 | 62.14758 | 33019 ft | 371 kts | 226° |
| 2026-04-25 06:17 | 55.58591 | 62.07893 | 33169 ft | 373 kts | 226° |
| 2026-04-25 06:17 | 55.55197 | 62.00979 | 33295 ft | 375 kts | 226° |
| 2026-04-25 06:18 | 55.51783 | 61.94049 | 33456 ft | 375 kts | 226° |
| 2026-04-25 06:18 | 55.48361 | 61.87125 | 33559 ft | 377 kts | 226° |
| 2026-04-25 06:19 | 55.44913 | 61.80174 | 33670 ft | 378 kts | 226° |
| 2026-04-25 06:19 | 55.41458 | 61.73228 | 33682 ft | 379 kts | 226° |
| 2026-04-25 06:20 | 55.37999 | 61.66291 | 33694 ft | 379 kts | 226° |
| 2026-04-25 06:20 | 55.34532 | 61.59367 | 33679 ft | 379 kts | 226° |
| 2026-04-25 06:21 | 55.31061 | 61.52522 | 33685 ft | 379 kts | 225° |
| 2026-04-25 06:21 | 55.27308 | 61.46019 | 33705 ft | 378 kts | 223° |
| 2026-04-25 06:22 | 55.23577 | 61.39648 | 33685 ft | 378 kts | 223° |
| 2026-04-25 06:22 | 55.19819 | 61.33262 | 33704 ft | 377 kts | 222° |
| 2026-04-25 06:23 | 55.16056 | 61.26902 | 33680 ft | 377 kts | 222° |
| 2026-04-25 06:23 | 55.12287 | 61.20549 | 33685 ft | 377 kts | 222° |
| 2026-04-25 06:24 | 55.08536 | 61.14254 | 33686 ft | 377 kts | 222° |
| 2026-04-25 06:24 | 55.04774 | 61.07969 | 33672 ft | 377 kts | 221° |
| 2026-04-25 06:25 | 55.00937 | 61.01719 | 33700 ft | 377 kts | 221° |
| 2026-04-25 06:25 | 54.97115 | 60.95526 | 33686 ft | 377 kts | 221° |
| 2026-04-25 06:26 | 54.93308 | 60.89359 | 33689 ft | 377 kts | 221° |
| 2026-04-25 06:26 | 54.89464 | 60.83124 | 33668 ft | 378 kts | 221° |
| 2026-04-25 06:27 | 54.85635 | 60.76893 | 33669 ft | 378 kts | 221° |
| 2026-04-25 06:27 | 54.81817 | 60.70703 | 33688 ft | 378 kts | 222° |
| 2026-04-25 06:28 | 54.77994 | 60.64522 | 33682 ft | 378 kts | 222° |
| 2026-04-25 06:28 | 54.74142 | 60.58309 | 33696 ft | 379 kts | 221° |
| 2026-04-25 06:29 | 54.70305 | 60.52146 | 33691 ft | 378 kts | 221° |
| 2026-04-25 06:29 | 54.66467 | 60.45997 | 33705 ft | 378 kts | 221° |
| 2026-04-25 06:30 | 54.62622 | 60.39858 | 33704 ft | 379 kts | 222° |
| 2026-04-25 06:30 | 54.58758 | 60.33698 | 33688 ft | 379 kts | 221° |
| 2026-04-25 06:31 | 54.54888 | 60.27557 | 33685 ft | 378 kts | 221° |
| 2026-04-25 06:31 | 54.51025 | 60.21437 | 33699 ft | 379 kts | 221° |
| 2026-04-25 06:32 | 54.47158 | 60.15327 | 33688 ft | 379 kts | 221° |
| 2026-04-25 06:32 | 54.43955 | 60.10281 | 33702 ft | 379 kts | 221° |
| 2026-04-25 06:33 | 54.39423 | 60.03176 | 33692 ft | 379 kts | 220° |
| 2026-04-25 06:33 | 54.35333 | 59.97537 | 33691 ft | 379 kts | 217° |
| 2026-04-25 06:34 | 54.31177 | 59.92003 | 33699 ft | 379 kts | 217° |
| 2026-04-25 06:34 | 54.27027 | 59.86500 | 33691 ft | 380 kts | 217° |
| 2026-04-25 06:35 | 54.22842 | 59.80983 | 33698 ft | 379 kts | 217° |
| 2026-04-25 06:35 | 54.18692 | 59.75532 | 33701 ft | 379 kts | 217° |
| 2026-04-25 06:36 | 54.14506 | 59.70049 | 33707 ft | 379 kts | 217° |
| 2026-04-25 06:36 | 54.10352 | 59.64629 | 33698 ft | 379 kts | 217° |
| 2026-04-25 06:37 | 54.06177 | 59.59199 | 33696 ft | 380 kts | 217° |
| 2026-04-25 06:37 | 54.01974 | 59.53740 | 33703 ft | 380 kts | 217° |
| 2026-04-25 06:38 | 53.97780 | 59.48316 | 33721 ft | 381 kts | 218° |
| 2026-04-25 06:38 | 53.94283 | 59.43795 | 33699 ft | 381 kts | 218° |
| 2026-04-25 06:39 | 53.89359 | 59.37452 | 33702 ft | 382 kts | 218° |
| 2026-04-25 06:39 | 53.85149 | 59.32064 | 33714 ft | 382 kts | 217° |
| 2026-04-25 06:40 | 53.80907 | 59.26650 | 33705 ft | 382 kts | 217° |
| 2026-04-25 06:40 | 53.76685 | 59.21281 | 33727 ft | 383 kts | 217° |
| 2026-04-25 06:41 | 53.72429 | 59.15878 | 33713 ft | 383 kts | 217° |
| 2026-04-25 06:41 | 53.68164 | 59.10486 | 33724 ft | 384 kts | 217° |
| 2026-04-25 06:42 | 53.63926 | 59.05136 | 33723 ft | 383 kts | 217° |
| 2026-04-25 06:42 | 53.60375 | 59.00667 | 33719 ft | 383 kts | 217° |
| 2026-04-25 06:43 | 53.55418 | 58.94439 | 33727 ft | 383 kts | 217° |
| 2026-04-25 06:43 | 53.51151 | 58.89100 | 33734 ft | 382 kts | 217° |
| 2026-04-25 06:44 | 53.46892 | 58.83820 | 33739 ft | 383 kts | 215° |
| 2026-04-25 06:44 | 53.43178 | 58.79810 | 33740 ft | 383 kts | 212° |
| 2026-04-25 06:45 | 53.37670 | 58.75018 | 33742 ft | 385 kts | 207° |
| 2026-04-25 06:45 | 53.32714 | 58.71722 | 33750 ft | 386 kts | 202° |
| 2026-04-25 06:46 | 53.27594 | 58.68968 | 33752 ft | 387 kts | 201° |
| 2026-04-25 06:46 | 53.22493 | 58.66206 | 33754 ft | 386 kts | 201° |
| 2026-04-25 06:47 | 53.17424 | 58.63486 | 33747 ft | 385 kts | 201° |
| 2026-04-25 06:47 | 53.12326 | 58.60770 | 33750 ft | 385 kts | 201° |
| 2026-04-25 06:48 | 53.07262 | 58.58082 | 33748 ft | 385 kts | 201° |
| 2026-04-25 06:48 | 53.02159 | 58.55383 | 33755 ft | 385 kts | 201° |
| 2026-04-25 06:49 | 52.97930 | 58.53150 | 33761 ft | 384 kts | 201° |
| 2026-04-25 06:49 | 52.92842 | 58.50475 | 33762 ft | 385 kts | 201° |
| 2026-04-25 06:50 | 52.87764 | 58.47809 | 33765 ft | 385 kts | 201° |
| 2026-04-25 06:50 | 52.81839 | 58.44706 | 33750 ft | 385 kts | 201° |
| 2026-04-25 06:51 | 52.76731 | 58.42042 | 33755 ft | 385 kts | 201° |
| 2026-04-25 06:51 | 52.71665 | 58.39402 | 33751 ft | 384 kts | 201° |
| 2026-04-25 06:52 | 52.66554 | 58.36751 | 33749 ft | 385 kts | 201° |
| 2026-04-25 06:52 | 52.61473 | 58.34117 | 33748 ft | 386 kts | 200° |
| 2026-04-25 06:53 | 52.57206 | 58.31919 | 33753 ft | 386 kts | 200° |
| 2026-04-25 06:53 | 52.52085 | 58.29331 | 33746 ft | 385 kts | 200° |
| 2026-04-25 06:54 | 52.46149 | 58.26344 | 33766 ft | 386 kts | 200° |
| 2026-04-25 06:54 | 52.41900 | 58.24210 | 33761 ft | 385 kts | 200° |
| 2026-04-25 06:55 | 52.35908 | 58.21208 | 33764 ft | 386 kts | 200° |
| 2026-04-25 06:55 | 52.31647 | 58.19077 | 33759 ft | 386 kts | 200° |
| 2026-04-25 06:56 | 52.25707 | 58.16120 | 33773 ft | 386 kts | 201° |
| 2026-04-25 06:56 | 52.21418 | 58.13985 | 33771 ft | 386 kts | 200° |
| 2026-04-25 06:57 | 52.15461 | 58.11030 | 33778 ft | 386 kts | 201° |
| 2026-04-25 06:57 | 52.10332 | 58.08495 | 33777 ft | 386 kts | 201° |
| 2026-04-25 06:58 | 52.06067 | 58.06387 | 33772 ft | 386 kts | 201° |
| 2026-04-25 06:58 | 52.00923 | 58.03855 | 33781 ft | 387 kts | 200° |
| 2026-04-25 06:59 | 51.95764 | 58.01317 | 33782 ft | 388 kts | 201° |
| 2026-04-25 06:59 | 51.90607 | 57.98785 | 33791 ft | 388 kts | 201° |
| 2026-04-25 07:00 | 51.84611 | 57.95849 | 33802 ft | 388 kts | 201° |
| 2026-04-25 07:00 | 51.80313 | 57.93755 | 33796 ft | 386 kts | 200° |
| 2026-04-25 07:01 | 51.74340 | 57.90843 | 33785 ft | 386 kts | 201° |
| 2026-04-25 07:01 | 51.69229 | 57.88362 | 33797 ft | 386 kts | 200° |
| 2026-04-25 07:02 | 51.64952 | 57.86291 | 33790 ft | 385 kts | 200° |
| 2026-04-25 07:02 | 51.59816 | 57.83808 | 33791 ft | 385 kts | 200° |
| 2026-04-25 07:03 | 51.53856 | 57.80934 | 33790 ft | 386 kts | 200° |
| 2026-04-25 07:03 | 51.48723 | 57.78464 | 33802 ft | 385 kts | 200° |
| 2026-04-25 07:04 | 51.44444 | 57.76413 | 33808 ft | 386 kts | 200° |
| 2026-04-25 07:04 | 51.38477 | 57.73557 | 33813 ft | 385 kts | 200° |
| 2026-04-25 07:05 | 51.34210 | 57.71519 | 33797 ft | 385 kts | 200° |
| 2026-04-25 07:05 | 51.29091 | 57.69079 | 33812 ft | 385 kts | 200° |
| 2026-04-25 07:06 | 51.23956 | 57.66636 | 33812 ft | 385 kts | 201° |
| 2026-04-25 07:06 | 51.18834 | 57.64208 | 33808 ft | 386 kts | 201° |
| 2026-04-25 07:07 | 51.12849 | 57.61376 | 33812 ft | 385 kts | 200° |
| 2026-04-25 07:07 | 51.08585 | 57.59364 | 33831 ft | 384 kts | 200° |
| 2026-04-25 07:08 | 51.02648 | 57.56570 | 33827 ft | 385 kts | 200° |
| 2026-04-25 07:08 | 50.98374 | 57.54562 | 33828 ft | 384 kts | 200° |
| 2026-04-25 07:09 | 50.93261 | 57.52169 | 33826 ft | 385 kts | 200° |
| 2026-04-25 07:09 | 50.88128 | 57.49769 | 33848 ft | 385 kts | 200° |
| 2026-04-25 07:10 | 50.82211 | 57.46767 | 33844 ft | 384 kts | 202° |
| 2026-04-25 07:10 | 50.77161 | 57.44134 | 33843 ft | 384 kts | 202° |
| 2026-04-25 07:11 | 50.72929 | 57.41939 | 33831 ft | 385 kts | 202° |
| 2026-04-25 07:11 | 50.67863 | 57.39325 | 33834 ft | 384 kts | 202° |
| 2026-04-25 07:12 | 50.62786 | 57.36717 | 33840 ft | 386 kts | 202° |
| 2026-04-25 07:12 | 50.55144 | 57.32801 | 33833 ft | 386 kts | 201° |
| 2026-04-25 07:13 | 50.49200 | 57.29762 | 33846 ft | 387 kts | 201° |
| 2026-04-25 07:13 | 50.44095 | 57.27162 | 33850 ft | 386 kts | 201° |
| 2026-04-25 07:14 | 50.38998 | 57.24571 | 33842 ft | 387 kts | 201° |
| 2026-04-25 07:14 | 50.34771 | 57.22430 | 33866 ft | 387 kts | 202° |
| 2026-04-25 07:15 | 50.29738 | 57.19481 | 33853 ft | 386 kts | 206° |
| 2026-04-25 07:15 | 50.24958 | 57.15859 | 33839 ft | 384 kts | 211° |
| 2026-04-25 07:16 | 50.20388 | 57.11546 | 33867 ft | 382 kts | 215° |
| 2026-04-25 07:16 | 50.16066 | 57.06852 | 33845 ft | 382 kts | 216° |
| 2026-04-25 07:17 | 50.10978 | 57.01349 | 33838 ft | 382 kts | 216° |
| 2026-04-25 07:17 | 50.06627 | 56.96634 | 33850 ft | 382 kts | 216° |
| 2026-04-25 07:18 | 50.02277 | 56.91920 | 33849 ft | 382 kts | 217° |
| 2026-04-25 07:18 | 49.98634 | 56.87977 | 33844 ft | 382 kts | 216° |
| 2026-04-25 07:19 | 49.94297 | 56.83290 | 33854 ft | 383 kts | 217° |
| 2026-04-25 07:19 | 49.89192 | 56.77784 | 33860 ft | 384 kts | 216° |
| 2026-04-25 07:20 | 49.85555 | 56.73869 | 33850 ft | 383 kts | 216° |
| 2026-04-25 07:20 | 49.81191 | 56.69188 | 33857 ft | 384 kts | 216° |
| 2026-04-25 07:21 | 49.76809 | 56.64494 | 33861 ft | 384 kts | 216° |
| 2026-04-25 07:21 | 49.72400 | 56.59786 | 33853 ft | 384 kts | 217° |
| 2026-04-25 07:22 | 49.68031 | 56.55109 | 33848 ft | 384 kts | 217° |
| 2026-04-25 07:22 | 49.63642 | 56.50413 | 33853 ft | 385 kts | 217° |
| 2026-04-25 07:23 | 49.59275 | 56.45755 | 33856 ft | 384 kts | 217° |
| 2026-04-25 07:23 | 49.54890 | 56.41085 | 33856 ft | 384 kts | 217° |
| 2026-04-25 07:24 | 49.50518 | 56.36446 | 33863 ft | 384 kts | 217° |
| 2026-04-25 07:24 | 49.46124 | 56.31791 | 33862 ft | 385 kts | 216° |
| 2026-04-25 07:25 | 49.41723 | 56.27136 | 33862 ft | 384 kts | 216° |
| 2026-04-25 07:25 | 49.37342 | 56.22517 | 33868 ft | 384 kts | 216° |
| 2026-04-25 07:26 | 49.32947 | 56.17889 | 33870 ft | 384 kts | 216° |
| 2026-04-25 07:26 | 49.28571 | 56.13296 | 33872 ft | 383 kts | 216° |
| 2026-04-25 07:27 | 49.24157 | 56.08670 | 33879 ft | 383 kts | 216° |
| 2026-04-25 07:27 | 49.19772 | 56.04086 | 33886 ft | 384 kts | 216° |
| 2026-04-25 07:28 | 49.15381 | 55.99502 | 33877 ft | 384 kts | 216° |
| 2026-04-25 07:28 | 49.10985 | 55.94926 | 33878 ft | 384 kts | 216° |
| 2026-04-25 07:29 | 49.06606 | 55.90379 | 33880 ft | 384 kts | 216° |
| 2026-04-25 07:29 | 49.02203 | 55.85815 | 33887 ft | 384 kts | 216° |
| 2026-04-25 07:30 | 48.97795 | 55.81259 | 33899 ft | 383 kts | 217° |
| 2026-04-25 07:30 | 48.93380 | 55.76704 | 33899 ft | 383 kts | 217° |
| 2026-04-25 07:31 | 48.88963 | 55.72158 | 33904 ft | 384 kts | 217° |
| 2026-04-25 07:31 | 48.84558 | 55.67631 | 33900 ft | 385 kts | 216° |
| 2026-04-25 07:32 | 48.79401 | 55.62349 | 33901 ft | 385 kts | 217° |
| 2026-04-25 07:32 | 48.75720 | 55.58588 | 33910 ft | 384 kts | 217° |
| 2026-04-25 07:33 | 48.71288 | 55.54068 | 33902 ft | 384 kts | 216° |
| 2026-04-25 07:33 | 48.66863 | 55.49570 | 33902 ft | 384 kts | 216° |
| 2026-04-25 07:34 | 48.62450 | 55.45091 | 33899 ft | 383 kts | 217° |
| 2026-04-25 07:34 | 48.58040 | 55.40625 | 33907 ft | 383 kts | 217° |
| 2026-04-25 07:35 | 48.53631 | 55.36161 | 33891 ft | 383 kts | 216° |
| 2026-04-25 07:35 | 48.49206 | 55.31692 | 33905 ft | 383 kts | 216° |
| 2026-04-25 07:36 | 48.44788 | 55.27244 | 33905 ft | 383 kts | 216° |
| 2026-04-25 07:36 | 48.40373 | 55.22805 | 33901 ft | 383 kts | 216° |
| 2026-04-25 07:37 | 48.35968 | 55.18388 | 33904 ft | 382 kts | 216° |
| 2026-04-25 07:37 | 48.31551 | 55.13967 | 33901 ft | 383 kts | 216° |
| 2026-04-25 07:38 | 48.27116 | 55.09538 | 33901 ft | 383 kts | 216° |
| 2026-04-25 07:38 | 48.22687 | 55.05125 | 33905 ft | 384 kts | 216° |
| 2026-04-25 07:39 | 48.18244 | 55.00708 | 33900 ft | 384 kts | 216° |
| 2026-04-25 07:39 | 48.13793 | 54.96289 | 33898 ft | 384 kts | 216° |
| 2026-04-25 07:40 | 48.09352 | 54.91891 | 33904 ft | 385 kts | 216° |
| 2026-04-25 07:40 | 48.04921 | 54.87513 | 33905 ft | 384 kts | 216° |
| 2026-04-25 07:41 | 48.00464 | 54.83120 | 33917 ft | 384 kts | 216° |
| 2026-04-25 07:41 | 47.96012 | 54.78742 | 33904 ft | 384 kts | 216° |
| 2026-04-25 07:42 | 47.91568 | 54.74377 | 33915 ft | 384 kts | 216° |
| 2026-04-25 07:42 | 47.87136 | 54.70028 | 33912 ft | 383 kts | 216° |
| 2026-04-25 07:43 | 47.82721 | 54.65707 | 33917 ft | 383 kts | 216° |
| 2026-04-25 07:43 | 47.78262 | 54.61354 | 33916 ft | 382 kts | 216° |
| 2026-04-25 07:44 | 47.73833 | 54.57037 | 33924 ft | 382 kts | 216° |
| 2026-04-25 07:44 | 47.69390 | 54.52719 | 33919 ft | 382 kts | 216° |
| 2026-04-25 07:45 | 47.64981 | 54.48443 | 33923 ft | 383 kts | 217° |
| 2026-04-25 07:45 | 47.60535 | 54.44134 | 33929 ft | 382 kts | 217° |
| 2026-04-25 07:46 | 47.56097 | 54.39847 | 33925 ft | 383 kts | 217° |
| 2026-04-25 07:46 | 47.51624 | 54.35535 | 33927 ft | 383 kts | 217° |
| 2026-04-25 07:47 | 47.47189 | 54.31269 | 33932 ft | 383 kts | 216° |
| 2026-04-25 07:47 | 47.42721 | 54.26981 | 33927 ft | 383 kts | 216° |
| 2026-04-25 07:48 | 47.38289 | 54.22734 | 33924 ft | 383 kts | 216° |
| 2026-04-25 07:48 | 47.33825 | 54.18463 | 33932 ft | 383 kts | 216° |
| 2026-04-25 07:49 | 47.29366 | 54.14209 | 33935 ft | 382 kts | 216° |
| 2026-04-25 07:49 | 47.24900 | 54.09958 | 33931 ft | 382 kts | 216° |
| 2026-04-25 07:50 | 47.20448 | 54.05729 | 33925 ft | 381 kts | 216° |
| 2026-04-25 07:50 | 47.16021 | 54.01531 | 33937 ft | 381 kts | 216° |
| 2026-04-25 07:51 | 47.11554 | 53.97308 | 33934 ft | 382 kts | 216° |
| 2026-04-25 07:51 | 47.07120 | 53.93119 | 33931 ft | 381 kts | 216° |
| 2026-04-25 07:52 | 47.02667 | 53.88924 | 33939 ft | 382 kts | 216° |
| 2026-04-25 07:52 | 46.98222 | 53.84747 | 33940 ft | 381 kts | 216° |
| 2026-04-25 07:53 | 46.93767 | 53.80567 | 33942 ft | 381 kts | 216° |
| 2026-04-25 07:53 | 46.89296 | 53.76374 | 33946 ft | 380 kts | 216° |
| 2026-04-25 07:54 | 46.84880 | 53.72243 | 33951 ft | 380 kts | 216° |
| 2026-04-25 07:54 | 46.80418 | 53.68080 | 33948 ft | 380 kts | 216° |
| 2026-04-25 07:55 | 46.76005 | 53.63971 | 33964 ft | 380 kts | 216° |
| 2026-04-25 07:55 | 46.71538 | 53.59819 | 33967 ft | 381 kts | 216° |
| 2026-04-25 07:56 | 46.67093 | 53.55694 | 33968 ft | 381 kts | 216° |
| 2026-04-25 07:56 | 46.62647 | 53.51574 | 33976 ft | 380 kts | 216° |
| 2026-04-25 07:57 | 46.58166 | 53.47434 | 33978 ft | 381 kts | 216° |
| 2026-04-25 07:57 | 46.53701 | 53.43331 | 33983 ft | 381 kts | 216° |
| 2026-04-25 07:58 | 46.49224 | 53.39235 | 33996 ft | 381 kts | 216° |
| 2026-04-25 07:58 | 46.44776 | 53.35161 | 33997 ft | 381 kts | 216° |
| 2026-04-25 07:59 | 46.40296 | 53.31064 | 33998 ft | 382 kts | 216° |
| 2026-04-25 07:59 | 46.35825 | 53.26970 | 34003 ft | 381 kts | 216° |
| 2026-04-25 08:00 | 46.31345 | 53.22880 | 33997 ft | 382 kts | 216° |
| 2026-04-25 08:00 | 46.26884 | 53.18813 | 34004 ft | 382 kts | 216° |
| 2026-04-25 08:01 | 46.22404 | 53.14735 | 34010 ft | 381 kts | 216° |
| 2026-04-25 08:01 | 46.17903 | 53.10650 | 34010 ft | 381 kts | 216° |
| 2026-04-25 08:02 | 46.13438 | 53.06601 | 34021 ft | 381 kts | 216° |
| 2026-04-25 08:02 | 46.08942 | 53.02533 | 34014 ft | 381 kts | 216° |
| 2026-04-25 08:03 | 46.04485 | 52.98514 | 34014 ft | 380 kts | 216° |
| 2026-04-25 08:03 | 46.00031 | 52.94503 | 34023 ft | 379 kts | 216° |
| 2026-04-25 08:04 | 45.95576 | 52.90499 | 34027 ft | 379 kts | 216° |
| 2026-04-25 08:04 | 45.91098 | 52.86480 | 34034 ft | 378 kts | 216° |
| 2026-04-25 08:05 | 45.86658 | 52.82502 | 34027 ft | 379 kts | 216° |
| 2026-04-25 08:05 | 45.82186 | 52.78501 | 34029 ft | 379 kts | 216° |
| 2026-04-25 08:06 | 45.77730 | 52.74525 | 34033 ft | 379 kts | 216° |
| 2026-04-25 08:06 | 45.73276 | 52.70559 | 34032 ft | 379 kts | 216° |
| 2026-04-25 08:07 | 45.68803 | 52.66577 | 34039 ft | 379 kts | 216° |
| 2026-04-25 08:07 | 45.64355 | 52.62629 | 34037 ft | 378 kts | 216° |
| 2026-04-25 08:08 | 45.59861 | 52.58646 | 34044 ft | 378 kts | 216° |
| 2026-04-25 08:08 | 45.55431 | 52.54732 | 34044 ft | 378 kts | 216° |
| 2026-04-25 08:09 | 45.50967 | 52.50798 | 34051 ft | 377 kts | 216° |
| 2026-04-25 08:09 | 45.46506 | 52.46874 | 34041 ft | 378 kts | 216° |
| 2026-04-25 08:10 | 45.42047 | 52.42954 | 34044 ft | 377 kts | 216° |
| 2026-04-25 08:10 | 45.37588 | 52.39047 | 34045 ft | 377 kts | 216° |
| 2026-04-25 08:11 | 45.33143 | 52.35155 | 34044 ft | 377 kts | 216° |
| 2026-04-25 08:11 | 45.28675 | 52.31253 | 34044 ft | 378 kts | 216° |
| 2026-04-25 08:12 | 45.24208 | 52.27356 | 34040 ft | 378 kts | 216° |
| 2026-04-25 08:12 | 45.19727 | 52.23457 | 34041 ft | 379 kts | 216° |
| 2026-04-25 08:13 | 45.15250 | 52.19565 | 34044 ft | 379 kts | 216° |
| 2026-04-25 08:14 | 45.08514 | 52.13726 | 34042 ft | 379 kts | 216° |
| 2026-04-25 08:14 | 45.04015 | 52.09835 | 34043 ft | 379 kts | 216° |
| 2026-04-25 08:15 | 44.99554 | 52.05978 | 34044 ft | 378 kts | 216° |
| 2026-04-25 08:15 | 44.95077 | 52.02122 | 34038 ft | 376 kts | 216° |
| 2026-04-25 08:16 | 44.90618 | 51.98281 | 34046 ft | 377 kts | 216° |
| 2026-04-25 08:16 | 44.86142 | 51.94437 | 34045 ft | 376 kts | 216° |
| 2026-04-25 08:17 | 44.81683 | 51.90619 | 34027 ft | 376 kts | 216° |
| 2026-04-25 08:17 | 44.77304 | 51.86680 | 34031 ft | 375 kts | 217° |
| 2026-04-25 08:18 | 44.72932 | 51.82709 | 34056 ft | 374 kts | 218° |
| 2026-04-25 08:18 | 44.68550 | 51.78733 | 34053 ft | 373 kts | 217° |
| 2026-04-25 08:19 | 44.64209 | 51.74814 | 34050 ft | 373 kts | 217° |
| 2026-04-25 08:19 | 44.59839 | 51.70877 | 34050 ft | 374 kts | 218° |
| 2026-04-25 08:20 | 44.55508 | 51.66974 | 34047 ft | 372 kts | 217° |
| 2026-04-25 08:20 | 44.51169 | 51.63077 | 34053 ft | 369 kts | 217° |
| 2026-04-25 08:21 | 44.46835 | 51.59197 | 34036 ft | 370 kts | 217° |
| 2026-04-25 08:21 | 44.42527 | 51.55341 | 34043 ft | 370 kts | 217° |
| 2026-04-25 08:22 | 44.38198 | 51.51471 | 34051 ft | 369 kts | 217° |
| 2026-04-25 08:22 | 44.33848 | 51.47592 | 34040 ft | 370 kts | 217° |
| 2026-04-25 08:23 | 44.29521 | 51.43746 | 34048 ft | 369 kts | 217° |
| 2026-04-25 08:23 | 44.25229 | 51.39928 | 34040 ft | 369 kts | 217° |
| 2026-04-25 08:24 | 44.20881 | 51.36073 | 34043 ft | 369 kts | 217° |
| 2026-04-25 08:24 | 44.16579 | 51.32261 | 34041 ft | 369 kts | 217° |
| 2026-04-25 08:25 | 44.12254 | 51.28439 | 34028 ft | 369 kts | 217° |
| 2026-04-25 08:25 | 44.07925 | 51.24620 | 34035 ft | 369 kts | 217° |
| 2026-04-25 08:26 | 44.03613 | 51.20816 | 34045 ft | 368 kts | 217° |
| 2026-04-25 08:26 | 43.99290 | 51.17022 | 34033 ft | 368 kts | 217° |
| 2026-04-25 08:27 | 43.95118 | 51.12948 | 34047 ft | 365 kts | 224° |
| 2026-04-25 08:27 | 43.91730 | 51.07817 | 34021 ft | 362 kts | 234° |
| 2026-04-25 08:28 | 43.89234 | 51.01728 | 34044 ft | 365 kts | 245° |
| 2026-04-25 08:28 | 43.87784 | 50.94966 | 34059 ft | 372 kts | 255° |
| 2026-04-25 08:29 | 43.87429 | 50.87783 | 34041 ft | 378 kts | 263° |
| 2026-04-25 08:29 | 43.87418 | 50.80531 | 34029 ft | 378 kts | 263° |
| 2026-04-25 08:30 | 43.87431 | 50.73254 | 34052 ft | 378 kts | 263° |
| 2026-04-25 08:30 | 43.87453 | 50.66034 | 34053 ft | 378 kts | 264° |
| 2026-04-25 08:31 | 43.87472 | 50.58775 | 34053 ft | 379 kts | 264° |
| 2026-04-25 08:31 | 43.87496 | 50.51457 | 34069 ft | 380 kts | 263° |
| 2026-04-25 08:32 | 43.87511 | 50.44173 | 34063 ft | 380 kts | 263° |
| 2026-04-25 08:32 | 43.87521 | 50.36905 | 34071 ft | 379 kts | 264° |
| 2026-04-25 08:33 | 43.87530 | 50.29615 | 34079 ft | 380 kts | 263° |
| 2026-04-25 08:33 | 43.87536 | 50.22288 | 34087 ft | 379 kts | 264° |
| 2026-04-25 08:34 | 43.87540 | 50.15012 | 34103 ft | 380 kts | 263° |
| 2026-04-25 08:34 | 43.87535 | 50.07743 | 34090 ft | 380 kts | 263° |
| 2026-04-25 08:35 | 43.87525 | 50.00418 | 34094 ft | 381 kts | 263° |
| 2026-04-25 08:35 | 43.87508 | 49.93111 | 34096 ft | 381 kts | 264° |
| 2026-04-25 08:36 | 43.87489 | 49.85739 | 34103 ft | 382 kts | 264° |
| 2026-04-25 08:36 | 43.87467 | 49.78433 | 34105 ft | 382 kts | 264° |
| 2026-04-25 08:37 | 43.87437 | 49.71060 | 34110 ft | 383 kts | 264° |
| 2026-04-25 08:37 | 43.87408 | 49.63695 | 34100 ft | 384 kts | 264° |
| 2026-04-25 08:38 | 43.87367 | 49.56297 | 34110 ft | 385 kts | 264° |
| 2026-04-25 08:38 | 43.87323 | 49.48902 | 34101 ft | 386 kts | 264° |
| 2026-04-25 08:39 | 43.87306 | 49.41461 | 34115 ft | 387 kts | 264° |
| 2026-04-25 08:39 | 43.87288 | 49.34063 | 34107 ft | 388 kts | 263° |
| 2026-04-25 08:40 | 43.87259 | 49.26582 | 34105 ft | 389 kts | 264° |
| 2026-04-25 08:40 | 43.87231 | 49.19091 | 34103 ft | 389 kts | 264° |
| 2026-04-25 08:41 | 43.87197 | 49.11589 | 34131 ft | 390 kts | 264° |
| 2026-04-25 08:41 | 43.87158 | 49.04090 | 34118 ft | 391 kts | 264° |
| 2026-04-25 08:42 | 43.87115 | 48.96591 | 34113 ft | 390 kts | 264° |
| 2026-04-25 08:42 | 43.87062 | 48.89096 | 34113 ft | 391 kts | 264° |
| 2026-04-25 08:43 | 43.87011 | 48.81629 | 34114 ft | 391 kts | 264° |
| 2026-04-25 08:43 | 43.86950 | 48.74062 | 34108 ft | 393 kts | 264° |
| 2026-04-25 08:44 | 43.86884 | 48.66557 | 34101 ft | 393 kts | 265° |
| 2026-04-25 08:44 | 43.86813 | 48.58998 | 34103 ft | 393 kts | 265° |
| 2026-04-25 08:45 | 43.86737 | 48.51431 | 34106 ft | 394 kts | 265° |
| 2026-04-25 08:45 | 43.86657 | 48.43870 | 34109 ft | 395 kts | 265° |
| 2026-04-25 08:46 | 43.86571 | 48.36232 | 34107 ft | 397 kts | 265° |
| 2026-04-25 08:46 | 43.86479 | 48.28600 | 34119 ft | 398 kts | 265° |
| 2026-04-25 08:47 | 43.86383 | 48.20949 | 34108 ft | 399 kts | 265° |
| 2026-04-25 08:47 | 43.86281 | 48.13287 | 34109 ft | 399 kts | 265° |
| 2026-04-25 08:48 | 43.86174 | 48.05606 | 34122 ft | 401 kts | 265° |
| 2026-04-25 08:48 | 43.86061 | 47.97890 | 34109 ft | 402 kts | 265° |
| 2026-04-25 08:49 | 43.85945 | 47.90169 | 34123 ft | 402 kts | 266° |
| 2026-04-25 08:49 | 43.85820 | 47.82490 | 34117 ft | 401 kts | 266° |
| 2026-04-25 08:50 | 43.85691 | 47.74775 | 34115 ft | 404 kts | 266° |
| 2026-04-25 08:50 | 43.85558 | 47.66997 | 34149 ft | 403 kts | 266° |
| 2026-04-25 08:51 | 43.85416 | 47.59256 | 34120 ft | 403 kts | 266° |
| 2026-04-25 08:51 | 43.85271 | 47.51521 | 34140 ft | 403 kts | 266° |
| 2026-04-25 08:52 | 43.85124 | 47.43813 | 34130 ft | 404 kts | 266° |
| 2026-04-25 08:52 | 43.84968 | 47.36082 | 34131 ft | 404 kts | 267° |
| 2026-04-25 08:53 | 43.84806 | 47.28301 | 34158 ft | 403 kts | 266° |
| 2026-04-25 08:53 | 43.84641 | 47.20549 | 34141 ft | 404 kts | 266° |
| 2026-04-25 08:54 | 43.84471 | 47.12818 | 34145 ft | 405 kts | 266° |
| 2026-04-25 08:54 | 43.84294 | 47.05049 | 34148 ft | 404 kts | 267° |
| 2026-04-25 08:55 | 43.84116 | 46.97291 | 34141 ft | 404 kts | 267° |
| 2026-04-25 08:55 | 43.83932 | 46.89656 | 34151 ft | 404 kts | 267° |
| 2026-04-25 08:56 | 43.83740 | 46.81910 | 34141 ft | 404 kts | 267° |
| 2026-04-25 08:56 | 43.83653 | 46.74122 | 34142 ft | 405 kts | 270° |
| 2026-04-25 08:57 | 43.84065 | 46.66409 | 34149 ft | 406 kts | 275° |
| 2026-04-25 08:57 | 43.84878 | 46.58657 | 34149 ft | 406 kts | 277° |
| 2026-04-25 08:58 | 43.85712 | 46.50988 | 34144 ft | 406 kts | 277° |
| 2026-04-25 08:58 | 43.86552 | 46.43284 | 34151 ft | 406 kts | 277° |
| 2026-04-25 08:59 | 43.87391 | 46.35534 | 34150 ft | 406 kts | 277° |
| 2026-04-25 08:59 | 43.88217 | 46.27847 | 34146 ft | 406 kts | 277° |
| 2026-04-25 09:00 | 43.89043 | 46.20144 | 34139 ft | 406 kts | 277° |
| 2026-04-25 09:00 | 43.89865 | 46.12389 | 34139 ft | 407 kts | 277° |
| 2026-04-25 09:01 | 43.90681 | 46.04650 | 34148 ft | 407 kts | 277° |
| 2026-04-25 09:01 | 43.91493 | 45.96899 | 34148 ft | 407 kts | 277° |
| 2026-04-25 09:02 | 43.92178 | 45.89132 | 34139 ft | 408 kts | 274° |
| 2026-04-25 09:02 | 43.92419 | 45.81326 | 34160 ft | 408 kts | 272° |
| 2026-04-25 09:03 | 43.92596 | 45.73462 | 34149 ft | 408 kts | 271° |
| 2026-04-25 09:03 | 43.92762 | 45.65654 | 34167 ft | 408 kts | 271° |
| 2026-04-25 09:04 | 43.92921 | 45.57810 | 34184 ft | 407 kts | 272° |
| 2026-04-25 09:04 | 43.93074 | 45.50008 | 34172 ft | 408 kts | 272° |
| 2026-04-25 09:05 | 43.93224 | 45.42118 | 34169 ft | 408 kts | 271° |
| 2026-04-25 09:05 | 43.93364 | 45.34298 | 34172 ft | 409 kts | 271° |
| 2026-04-25 09:06 | 43.93502 | 45.26416 | 34176 ft | 409 kts | 271° |
| 2026-04-25 09:06 | 43.93636 | 45.18554 | 34171 ft | 408 kts | 271° |
| 2026-04-25 09:07 | 43.93761 | 45.10707 | 34153 ft | 411 kts | 271° |
| 2026-04-25 09:07 | 43.93882 | 45.02805 | 34142 ft | 412 kts | 272° |
| 2026-04-25 09:08 | 43.94000 | 44.94912 | 34142 ft | 412 kts | 272° |
| 2026-04-25 09:08 | 43.94111 | 44.86989 | 34158 ft | 411 kts | 272° |
| 2026-04-25 09:09 | 43.94217 | 44.79068 | 34142 ft | 411 kts | 272° |
| 2026-04-25 09:09 | 43.94317 | 44.71189 | 34137 ft | 410 kts | 272° |
| 2026-04-25 09:10 | 43.94413 | 44.63266 | 34146 ft | 412 kts | 272° |
| 2026-04-25 09:10 | 43.94501 | 44.55365 | 34143 ft | 412 kts | 273° |
| 2026-04-25 09:11 | 43.94624 | 44.43473 | 34150 ft | 412 kts | 274° |
| 2026-04-25 09:11 | 43.94702 | 44.35566 | 34148 ft | 412 kts | 274° |
| 2026-04-25 09:12 | 43.94769 | 44.27587 | 34162 ft | 414 kts | 273° |
| 2026-04-25 09:12 | 43.94836 | 44.19625 | 34147 ft | 417 kts | 274° |
| 2026-04-25 09:13 | 43.94899 | 44.11601 | 34137 ft | 416 kts | 274° |
| 2026-04-25 09:13 | 43.94952 | 44.03589 | 34150 ft | 416 kts | 274° |
| 2026-04-25 09:14 | 43.95000 | 43.95636 | 34145 ft | 416 kts | 274° |
| 2026-04-25 09:14 | 43.95044 | 43.87646 | 34164 ft | 415 kts | 274° |
| 2026-04-25 09:15 | 43.95084 | 43.79634 | 34143 ft | 414 kts | 274° |
| 2026-04-25 09:15 | 43.95114 | 43.71693 | 34152 ft | 414 kts | 275° |
| 2026-04-25 09:16 | 43.95142 | 43.63727 | 34161 ft | 413 kts | 275° |
| 2026-04-25 09:16 | 43.95162 | 43.55763 | 34160 ft | 414 kts | 275° |
| 2026-04-25 09:17 | 43.95185 | 43.43858 | 34138 ft | 413 kts | 275° |
| 2026-04-25 09:18 | 43.95188 | 43.35937 | 34159 ft | 412 kts | 275° |
| 2026-04-25 09:18 | 43.95190 | 43.27965 | 34141 ft | 412 kts | 275° |
| 2026-04-25 09:18 | 43.95186 | 43.24085 | 34123 ft | 397 kts | 275° |
| 2026-04-25 09:19 | 43.95178 | 43.20303 | 34144 ft | 380 kts | 276° |
| 2026-04-25 09:19 | 43.95172 | 43.16734 | 34124 ft | 364 kts | 276° |
| 2026-04-25 09:19 | 43.95166 | 43.13308 | 34125 ft | 349 kts | 276° |
| 2026-04-25 09:19 | 43.95160 | 43.10004 | 34127 ft | 336 kts | 276° |
| 2026-04-25 09:20 | 43.95158 | 43.06774 | 34134 ft | 336 kts | 276° |
| 2026-04-25 09:20 | 43.95149 | 43.00301 | 34109 ft | 336 kts | 277° |
| 2026-04-25 09:21 | 43.95136 | 42.93830 | 34128 ft | 335 kts | 276° |
| 2026-04-25 09:21 | 43.95116 | 42.87386 | 34113 ft | 336 kts | 277° |
| 2026-04-25 09:22 | 43.95092 | 42.80938 | 34109 ft | 336 kts | 277° |
| 2026-04-25 09:22 | 43.95061 | 42.74484 | 34087 ft | 336 kts | 277° |
| 2026-04-25 09:23 | 43.95030 | 42.68007 | 34108 ft | 335 kts | 277° |
| 2026-04-25 09:23 | 43.94987 | 42.61552 | 34083 ft | 337 kts | 277° |
| 2026-04-25 09:24 | 43.94813 | 42.55035 | 34070 ft | 337 kts | 276° |
| 2026-04-25 09:24 | 43.94624 | 42.48550 | 34069 ft | 336 kts | 275° |
| 2026-04-25 09:25 | 43.94436 | 42.42088 | 34058 ft | 335 kts | 276° |
| 2026-04-25 09:25 | 43.94248 | 42.35671 | 34062 ft | 336 kts | 276° |
| 2026-04-25 09:26 | 43.94056 | 42.29216 | 34057 ft | 337 kts | 276° |
| 2026-04-25 09:26 | 43.93864 | 42.22742 | 34064 ft | 337 kts | 275° |
| 2026-04-25 09:27 | 43.93665 | 42.16236 | 34070 ft | 335 kts | 275° |
| 2026-04-25 09:27 | 43.93461 | 42.09781 | 34075 ft | 336 kts | 275° |
| 2026-04-25 09:28 | 43.93260 | 42.03345 | 34096 ft | 337 kts | 276° |
| 2026-04-25 09:28 | 43.93051 | 41.96873 | 34096 ft | 337 kts | 276° |
| 2026-04-25 09:29 | 43.92841 | 41.90405 | 34089 ft | 337 kts | 275° |
| 2026-04-25 09:29 | 43.92622 | 41.83901 | 34092 ft | 338 kts | 275° |
| 2026-04-25 09:30 | 43.92404 | 41.77447 | 34101 ft | 337 kts | 275° |
| 2026-04-25 09:30 | 43.92182 | 41.70950 | 34105 ft | 337 kts | 275° |
| 2026-04-25 09:31 | 43.91953 | 41.64482 | 34103 ft | 337 kts | 275° |
| 2026-04-25 09:31 | 43.91722 | 41.57988 | 34111 ft | 338 kts | 275° |
| 2026-04-25 09:32 | 43.91480 | 41.51511 | 34101 ft | 338 kts | 274° |
| 2026-04-25 09:32 | 43.91231 | 41.45016 | 34086 ft | 338 kts | 274° |
| 2026-04-25 09:33 | 43.90979 | 41.38512 | 34089 ft | 338 kts | 274° |
| 2026-04-25 09:33 | 43.90722 | 41.32017 | 34070 ft | 338 kts | 274° |
| 2026-04-25 09:34 | 43.90461 | 41.25486 | 34069 ft | 338 kts | 273° |
| 2026-04-25 09:34 | 43.90199 | 41.19042 | 34068 ft | 338 kts | 273° |
| 2026-04-25 09:35 | 43.89930 | 41.12554 | 33738 ft | 332 kts | 273° |
| 2026-04-25 09:35 | 43.89798 | 41.09374 | 33237 ft | 331 kts | 273° |
| 2026-04-25 09:35 | 43.89664 | 41.06190 | 32762 ft | 329 kts | 274° |
| 2026-04-25 09:35 | 43.89532 | 41.03082 | 32355 ft | 326 kts | 274° |
| 2026-04-25 09:36 | 43.89400 | 40.99949 | 31946 ft | 322 kts | 273° |
| 2026-04-25 09:36 | 43.89268 | 40.96880 | 31542 ft | 319 kts | 273° |
| 2026-04-25 09:36 | 43.89140 | 40.93844 | 31132 ft | 315 kts | 274° |
| 2026-04-25 09:36 | 43.89009 | 40.90845 | 30711 ft | 313 kts | 273° |
| 2026-04-25 09:37 | 43.88881 | 40.87871 | 30298 ft | 310 kts | 274° |
| 2026-04-25 09:37 | 43.88750 | 40.84908 | 29856 ft | 308 kts | 274° |
| 2026-04-25 09:37 | 43.88620 | 40.81940 | 29417 ft | 305 kts | 274° |
| 2026-04-25 09:37 | 43.88493 | 40.79044 | 28993 ft | 302 kts | 274° |
| 2026-04-25 09:38 | 43.88318 | 40.76157 | 28575 ft | 302 kts | 270° |
| 2026-04-25 09:38 | 43.87995 | 40.73266 | 28155 ft | 302 kts | 266° |
| 2026-04-25 09:38 | 43.87530 | 40.70442 | 27740 ft | 302 kts | 263° |
| 2026-04-25 09:38 | 43.86924 | 40.67668 | 27326 ft | 303 kts | 259° |
| 2026-04-25 09:39 | 43.86176 | 40.64953 | 26900 ft | 304 kts | 255° |
| 2026-04-25 09:39 | 43.85335 | 40.62284 | 26502 ft | 301 kts | 255° |
| 2026-04-25 09:39 | 43.84494 | 40.59643 | 26115 ft | 298 kts | 255° |
| 2026-04-25 09:40 | 43.82838 | 40.54440 | 25310 ft | 294 kts | 255° |
| 2026-04-25 09:40 | 43.82016 | 40.51869 | 24912 ft | 291 kts | 255° |
| 2026-04-25 09:40 | 43.81203 | 40.49326 | 24509 ft | 290 kts | 255° |
| 2026-04-25 09:40 | 43.80401 | 40.46813 | 24118 ft | 288 kts | 255° |
| 2026-04-25 09:41 | 43.79594 | 40.44292 | 23750 ft | 285 kts | 255° |
| 2026-04-25 09:41 | 43.78793 | 40.41789 | 23384 ft | 283 kts | 255° |
| 2026-04-25 09:41 | 43.78009 | 40.39343 | 23015 ft | 281 kts | 255° |
| 2026-04-25 09:41 | 43.77220 | 40.36891 | 22668 ft | 278 kts | 255° |
| 2026-04-25 09:42 | 43.76440 | 40.34465 | 22309 ft | 276 kts | 254° |
| 2026-04-25 09:42 | 43.75667 | 40.32061 | 21944 ft | 275 kts | 254° |
| 2026-04-25 09:42 | 43.74888 | 40.29635 | 21589 ft | 273 kts | 254° |
| 2026-04-25 09:42 | 43.74128 | 40.27275 | 21266 ft | 271 kts | 254° |
| 2026-04-25 09:43 | 43.73367 | 40.24918 | 20933 ft | 269 kts | 254° |
| 2026-04-25 09:43 | 43.72604 | 40.22555 | 20606 ft | 266 kts | 254° |
| 2026-04-25 09:43 | 43.71856 | 40.20244 | 20277 ft | 265 kts | 254° |
| 2026-04-25 09:43 | 43.71111 | 40.17937 | 19952 ft | 263 kts | 254° |
| 2026-04-25 09:44 | 43.70372 | 40.15652 | 19632 ft | 261 kts | 254° |
| 2026-04-25 09:44 | 43.69569 | 40.13389 | 19282 ft | 265 kts | 246° |
| 2026-04-25 09:44 | 43.68418 | 40.11387 | 18927 ft | 274 kts | 233° |
| 2026-04-25 09:44 | 43.66900 | 40.09730 | 18589 ft | 282 kts | 219° |
| 2026-04-25 09:45 | 43.65136 | 40.08492 | 18267 ft | 285 kts | 213° |
| 2026-04-25 09:45 | 43.63348 | 40.07378 | 17949 ft | 284 kts | 212° |
| 2026-04-25 09:45 | 43.61539 | 40.06269 | 17639 ft | 282 kts | 213° |
| 2026-04-25 09:45 | 43.59772 | 40.05175 | 17331 ft | 280 kts | 213° |
| 2026-04-25 09:46 | 43.57999 | 40.04068 | 17038 ft | 277 kts | 213° |
| 2026-04-25 09:46 | 43.56245 | 40.02973 | 16720 ft | 276 kts | 213° |
| 2026-04-25 09:46 | 43.54502 | 40.01882 | 16415 ft | 274 kts | 212° |
| 2026-04-25 09:46 | 43.52792 | 40.00811 | 16114 ft | 272 kts | 212° |
| 2026-04-25 09:47 | 43.51060 | 39.99728 | 15816 ft | 270 kts | 212° |
| 2026-04-25 09:47 | 43.49360 | 39.98667 | 15517 ft | 269 kts | 212° |
| 2026-04-25 09:47 | 43.47670 | 39.97610 | 15215 ft | 267 kts | 212° |
| 2026-04-25 09:47 | 43.45971 | 39.96572 | 14910 ft | 267 kts | 210° |
| 2026-04-25 09:48 | 43.44237 | 39.95668 | 14617 ft | 267 kts | 206° |
| 2026-04-25 09:48 | 43.42477 | 39.94861 | 14316 ft | 266 kts | 206° |
| 2026-04-25 09:48 | 43.40715 | 39.94060 | 14015 ft | 265 kts | 206° |
| 2026-04-25 09:48 | 43.38976 | 39.93270 | 13724 ft | 263 kts | 206° |
| 2026-04-25 09:49 | 43.37265 | 39.92492 | 13451 ft | 261 kts | 206° |
| 2026-04-25 09:49 | 43.35547 | 39.91709 | 13170 ft | 259 kts | 206° |
| 2026-04-25 09:49 | 43.33847 | 39.90934 | 12884 ft | 257 kts | 205° |
| 2026-04-25 09:49 | 43.32148 | 39.90160 | 12607 ft | 256 kts | 205° |
| 2026-04-25 09:50 | 43.30477 | 39.89399 | 12329 ft | 254 kts | 205° |
| 2026-04-25 09:50 | 43.28795 | 39.88636 | 12054 ft | 252 kts | 205° |
| 2026-04-25 09:50 | 43.27133 | 39.87881 | 11759 ft | 251 kts | 205° |
| 2026-04-25 09:50 | 43.25488 | 39.87134 | 11483 ft | 250 kts | 204° |
| 2026-04-25 09:51 | 43.23847 | 39.86388 | 11194 ft | 248 kts | 204° |
| 2026-04-25 09:51 | 43.22202 | 39.85642 | 10910 ft | 247 kts | 204° |
| 2026-04-25 09:51 | 43.20567 | 39.84901 | 10622 ft | 246 kts | 204° |
| 2026-04-25 09:51 | 43.18962 | 39.84175 | 10348 ft | 244 kts | 204° |
| 2026-04-25 09:52 | 43.17362 | 39.83450 | 10033 ft | 245 kts | 203° |
| 2026-04-25 09:52 | 43.15728 | 39.82708 | 9620 ft | 250 kts | 203° |
| 2026-04-25 09:52 | 43.14058 | 39.81952 | 9183 ft | 254 kts | 202° |
| 2026-04-25 09:52 | 43.12357 | 39.81182 | 8755 ft | 259 kts | 202° |
| 2026-04-25 09:53 | 43.10666 | 39.80419 | 8323 ft | 255 kts | 202° |
| 2026-04-25 09:53 | 43.09024 | 39.79554 | 7879 ft | 249 kts | 216° |
| 2026-04-25 09:53 | 43.07935 | 39.77831 | 7435 ft | 239 kts | 253° |
| 2026-04-25 09:53 | 43.07753 | 39.75635 | 7083 ft | 235 kts | 279° |
| 2026-04-25 09:54 | 43.08277 | 39.73558 | 6759 ft | 233 kts | 302° |
| 2026-04-25 09:54 | 43.09380 | 39.71982 | 6429 ft | 233 kts | 327° |
| 2026-04-25 09:54 | 43.10901 | 39.71201 | 6089 ft | 237 kts | 352° |
| 2026-04-25 09:54 | 43.12544 | 39.71447 | 5808 ft | 238 kts | 19° |
| 2026-04-25 09:55 | 43.14023 | 39.72457 | 5562 ft | 237 kts | 27° |
| 2026-04-25 09:55 | 43.15451 | 39.73535 | 5308 ft | 236 kts | 27° |
| 2026-04-25 09:55 | 43.16891 | 39.74622 | 5044 ft | 235 kts | 27° |
| 2026-04-25 09:55 | 43.18343 | 39.75710 | 4787 ft | 235 kts | 27° |
| 2026-04-25 09:56 | 43.19761 | 39.76765 | 4530 ft | 234 kts | 28° |
| 2026-04-25 09:56 | 43.21176 | 39.77815 | 4260 ft | 227 kts | 28° |
| 2026-04-25 09:56 | 43.22533 | 39.78821 | 3994 ft | 218 kts | 28° |
| 2026-04-25 09:56 | 43.23844 | 39.79791 | 3729 ft | 209 kts | 28° |
| 2026-04-25 09:57 | 43.25102 | 39.80721 | 3462 ft | 202 kts | 29° |
| 2026-04-25 09:57 | 43.26315 | 39.81620 | 3189 ft | 195 kts | 29° |
| 2026-04-25 09:57 | 43.27496 | 39.82495 | 2864 ft | 192 kts | 30° |
| 2026-04-25 09:57 | 43.28667 | 39.83369 | 2510 ft | 191 kts | 31° |
| 2026-04-25 09:58 | 43.29835 | 39.84243 | 2159 ft | 191 kts | 31° |
| 2026-04-25 09:58 | 43.30988 | 39.85103 | 2005 ft | 186 kts | 31° |
| 2026-04-25 09:58 | 43.32129 | 39.85946 | 2005 ft | 187 kts | 31° |
| 2026-04-25 09:58 | 43.33275 | 39.86802 | 2000 ft | 187 kts | 31° |
| 2026-04-25 09:59 | 43.34417 | 39.87662 | 2025 ft | 187 kts | 32° |
| 2026-04-25 09:59 | 43.35541 | 39.88509 | 1754 ft | 180 kts | 32° |
| 2026-04-25 09:59 | 43.36608 | 39.89312 | 1529 ft | 166 kts | 32° |
| 2026-04-25 09:59 | 43.37582 | 39.90045 | 1285 ft | 153 kts | 32° |
| 2026-04-25 10:00 | 43.38445 | 39.90695 | 1076 ft | 141 kts | 32° |
| 2026-04-25 10:00 | 43.39296 | 39.91332 | 906 ft | 138 kts | 32° |
| 2026-04-25 10:00 | 43.40141 | 39.91967 | 763 ft | 137 kts | 33° |
| 2026-04-25 10:00 | 43.40964 | 39.92607 | 585 ft | 137 kts | 32° |
| 2026-04-25 10:01 | 43.41811 | 39.93229 | 431 ft | 137 kts | 33° |
| 2026-04-25 10:01 | 43.42646 | 39.93876 | 252 ft | 137 kts | 31° |
| 2026-04-25 10:01 | 43.43470 | 39.94489 | 83 ft | 136 kts | 32° |
| 2026-04-25 10:01 | 43.44248 | 39.95086 | 58 ft | 108 kts | 28° |
| 2026-04-25 10:02 | 43.44762 | 39.95462 | 64 ft | 58 kts | 27° |
| 2026-04-25 10:02 | 43.44949 | 39.95586 | 67 ft | 17 kts | 350° |
| 2026-04-25 10:02 | 43.45052 | 39.95518 | 68 ft | 4 kts | 334° |
| 2026-04-25 10:02 | 43.45054 | 39.95517 | 68 ft | 0 kts | 334° |
| 2026-04-25 10:03 | 43.45055 | 39.95516 | 68 ft | 0 kts | 334° |
| 2026-04-25 10:03 | 43.45057 | 39.95515 | 68 ft | 0 kts | 334° |
| 2026-04-25 10:04 | 43.45079 | 39.95480 | 68 ft | 10 kts | 300° |
| 2026-04-25 10:04 | 43.45094 | 39.95372 | 67 ft | 13 kts | 259° |
| 2026-04-25 10:04 | 43.45053 | 39.95240 | 63 ft | 16 kts | 245° |
| 2026-04-25 10:04 | 43.45002 | 39.95095 | 61 ft | 14 kts | 234° |
| 2026-04-25 10:05 | 43.44944 | 39.94986 | 59 ft | 15 kts | 245° |
| 2026-04-25 10:05 | 43.44894 | 39.94839 | 57 ft | 17 kts | 245° |
| 2026-04-25 10:05 | 43.44843 | 39.94690 | 58 ft | 17 kts | 245° |
| 2026-04-25 10:05 | 43.44804 | 39.94572 | 57 ft | 8 kts | 245° |
| 2026-04-25 10:06 | 43.44827 | 39.94514 | 57 ft | 8 kts | 338° |
| 2026-04-25 10:06 | 43.44859 | 39.94494 | 58 ft | 0 kts | 333° |